sensor_id;sensor_type;location;lat;lon;timestamp;pressure;altitude;pressure_sealevel;temperature;humidity
74975;BME280;64061;50.836;19.138;2022-12-13T00:02:20;97793.34;;;21.93;43.31
74975;BME280;64061;50.836;19.138;2022-12-13T00:05:26;97801.56;;;21.93;43.72
74975;BME280;64061;50.836;19.138;2022-12-13T00:08:29;97798.84;;;21.93;43.44
74975;BME280;64061;50.836;19.138;2022-12-13T00:11:33;97796.09;;;21.93;43.25
74975;BME280;64061;50.836;19.138;2022-12-13T00:17:41;97801.56;;;21.93;42.87
74975;BME280;64061;50.836;19.138;2022-12-13T00:20:47;97802.06;;;21.95;43.10
74975;BME280;64061;50.836;19.138;2022-12-13T00:23:51;97804.81;;;21.95;43.03
74975;BME280;64061;50.836;19.138;2022-12-13T00:26:55;97779.28;;;21.95;42.59
74975;BME280;64061;50.836;19.138;2022-12-13T00:29:59;97809.50;;;21.95;42.76
74975;BME280;64061;50.836;19.138;2022-12-13T00:33:02;97804.50;;;21.97;42.74
74975;BME280;64061;50.836;19.138;2022-12-13T00:36:09;97808.56;;;21.99;42.80
74975;BME280;64061;50.836;19.138;2022-12-13T00:39:13;97810.50;;;21.99;42.58
74975;BME280;64061;50.836;19.138;2022-12-13T00:42:18;97813.75;;;22.01;42.66
74975;BME280;64061;50.836;19.138;2022-12-13T00:45:21;97813.41;;;22.02;42.46
74975;BME280;64061;50.836;19.138;2022-12-13T00:48:26;97820.53;;;22.03;42.74
74975;BME280;64061;50.836;19.138;2022-12-13T00:51:32;97824.59;;;22.06;42.55
74975;BME280;64061;50.836;19.138;2022-12-13T00:54:37;97824.09;;;22.04;42.98
74975;BME280;64061;50.836;19.138;2022-12-13T00:57:40;97820.84;;;22.02;42.52
74975;BME280;64061;50.836;19.138;2022-12-13T01:00:44;97823.91;;;22.00;42.76
74975;BME280;64061;50.836;19.138;2022-12-13T01:03:49;97845.06;;;22.00;42.64
74975;BME280;64061;50.836;19.138;2022-12-13T01:06:55;97842.31;;;22.00;42.36
74975;BME280;64061;50.836;19.138;2022-12-13T01:09:58;97835.50;;;21.97;42.64
74975;BME280;64061;50.836;19.138;2022-12-13T01:13:02;97830.00;;;21.97;42.49
74975;BME280;64061;50.836;19.138;2022-12-13T01:16:07;97830.00;;;21.97;42.34
74975;BME280;64061;50.836;19.138;2022-12-13T01:22:18;97842.78;;;21.93;42.23
74975;BME280;64061;50.836;19.138;2022-12-13T01:25:22;97830.16;;;21.92;42.07
74975;BME280;64061;50.836;19.138;2022-12-13T01:28:25;97842.28;;;21.91;42.27
74975;BME280;64061;50.836;19.138;2022-12-13T01:31:30;97835.66;;;21.92;42.24
74975;BME280;64061;50.836;19.138;2022-12-13T01:34:34;97835.97;;;21.91;42.57
74975;BME280;64061;50.836;19.138;2022-12-13T01:37:39;97837.59;;;21.92;41.79
74975;BME280;64061;50.836;19.138;2022-12-13T01:40:44;97839.84;;;21.90;42.11
74975;BME280;64061;50.836;19.138;2022-12-13T01:43:52;97845.03;;;21.91;42.13
74975;BME280;64061;50.836;19.138;2022-12-13T01:46:59;97839.03;;;21.89;42.14
74975;BME280;64061;50.836;19.138;2022-12-13T01:50:07;97840.66;;;21.90;42.10
74975;BME280;64061;50.836;19.138;2022-12-13T01:53:18;97840.97;;;21.89;42.66
74975;BME280;64061;50.836;19.138;2022-12-13T01:56:29;97844.53;;;21.89;41.80
74975;BME280;64061;50.836;19.138;2022-12-13T01:59:38;97850.63;;;21.86;42.04
74975;BME280;64061;50.836;19.138;2022-12-13T02:02:44;97850.63;;;21.86;42.03
74975;BME280;64061;50.836;19.138;2022-12-13T02:05:55;97841.59;;;21.86;41.52
74975;BME280;64061;50.836;19.138;2022-12-13T02:09:06;97850.13;;;21.84;41.75
74975;BME280;64061;50.836;19.138;2022-12-13T02:12:11;97852.09;;;21.84;41.86
74975;BME280;64061;50.836;19.138;2022-12-13T02:15:17;97857.59;;;21.84;42.03
74975;BME280;64061;50.836;19.138;2022-12-13T02:18:32;97842.72;;;21.85;41.96
74975;BME280;64061;50.836;19.138;2022-12-13T02:21:57;97854.84;;;21.84;41.74
74975;BME280;64061;50.836;19.138;2022-12-13T02:25:28;97854.34;;;21.82;41.70
74975;BME280;64061;50.836;19.138;2022-12-13T02:29:01;97854.66;;;21.80;41.49
74975;BME280;64061;50.836;19.138;2022-12-13T02:32:38;97865.16;;;21.78;41.64
74975;BME280;64061;50.836;19.138;2022-12-13T02:35:53;97871.44;;;21.79;42.14
74975;BME280;64061;50.836;19.138;2022-12-13T02:39:08;97865.16;;;21.78;41.32
74975;BME280;64061;50.836;19.138;2022-12-13T02:42:36;97865.47;;;21.77;41.65
74975;BME280;64061;50.836;19.138;2022-12-13T02:45:46;97860.47;;;21.79;41.24
74975;BME280;64061;50.836;19.138;2022-12-13T02:48:55;97866.78;;;21.79;41.32
74975;BME280;64061;50.836;19.138;2022-12-13T02:52:02;97868.22;;;21.77;41.34
74975;BME280;64061;50.836;19.138;2022-12-13T02:55:15;97869.81;;;21.78;41.49
74975;BME280;64061;50.836;19.138;2022-12-13T02:58:25;97876.13;;;21.78;41.61
74975;BME280;64061;50.836;19.138;2022-12-13T03:01:41;97869.53;;;21.79;41.33
74975;BME280;64061;50.836;19.138;2022-12-13T03:04:59;97869.81;;;21.78;41.43
74975;BME280;64061;50.836;19.138;2022-12-13T03:08:35;97879.00;;;21.73;41.60
74975;BME280;64061;50.836;19.138;2022-12-13T03:11:57;97869.63;;;21.74;41.50
74975;BME280;64061;50.836;19.138;2022-12-13T03:15:34;97875.75;;;21.71;41.33
74975;BME280;64061;50.836;19.138;2022-12-13T03:18:46;97865.59;;;21.72;41.88
74975;BME280;64061;50.836;19.138;2022-12-13T03:21:53;97877.38;;;21.72;41.21
74975;BME280;64061;50.836;19.138;2022-12-13T03:24:56;97872.19;;;21.70;41.28
74975;BME280;64061;50.836;19.138;2022-12-13T03:28:00;97866.41;;;21.72;40.87
74975;BME280;64061;50.836;19.138;2022-12-13T03:31:04;97862.53;;;21.73;41.92
74975;BME280;64061;50.836;19.138;2022-12-13T03:34:11;97872.69;;;21.73;41.41
74975;BME280;64061;50.836;19.138;2022-12-13T03:37:24;97878.19;;;21.73;41.05
74975;BME280;64061;50.836;19.138;2022-12-13T03:40:29;97882.56;;;21.74;40.62
74975;BME280;64061;50.836;19.138;2022-12-13T03:43:35;97884.50;;;21.73;41.33
74975;BME280;64061;50.836;19.138;2022-12-13T03:46:39;97880.63;;;21.74;41.11
74975;BME280;64061;50.836;19.138;2022-12-13T03:49:42;97886.13;;;21.74;41.27
74975;BME280;64061;50.836;19.138;2022-12-13T03:52:58;97887.72;;;21.75;41.13
74975;BME280;64061;50.836;19.138;2022-12-13T03:56:03;97868.03;;;21.73;41.20
74975;BME280;64061;50.836;19.138;2022-12-13T03:59:08;97872.69;;;21.73;41.16
74975;BME280;64061;50.836;19.138;2022-12-13T04:02:12;97877.06;;;21.74;41.02
74975;BME280;64061;50.836;19.138;2022-12-13T04:05:32;97884.50;;;21.73;40.91
74975;BME280;64061;50.836;19.138;2022-12-13T04:08:38;97887.63;;;21.80;40.99
74975;BME280;64061;50.836;19.138;2022-12-13T04:11:42;97886.00;;;21.79;40.98
74975;BME280;64061;50.836;19.138;2022-12-13T04:15:04;97883.25;;;21.79;40.92
74975;BME280;64061;50.836;19.138;2022-12-13T04:18:09;97886.50;;;21.81;40.49
74975;BME280;64061;50.836;19.138;2022-12-13T04:21:12;97890.53;;;21.84;41.27
74975;BME280;64061;50.836;19.138;2022-12-13T04:24:17;97889.09;;;21.86;41.11
74975;BME280;64061;50.836;19.138;2022-12-13T04:27:21;97889.09;;;21.86;41.23
74975;BME280;64061;50.836;19.138;2022-12-13T04:30:26;97894.56;;;21.86;40.55
74975;BME280;64061;50.836;19.138;2022-12-13T04:33:30;97907.19;;;21.87;40.96
74975;BME280;64061;50.836;19.138;2022-12-13T04:36:34;97902.19;;;21.89;41.10
74975;BME280;64061;50.836;19.138;2022-12-13T04:39:39;97903.50;;;21.92;41.00
74975;BME280;64061;50.836;19.138;2022-12-13T04:42:49;97897.50;;;21.90;40.71
74975;BME280;64061;50.836;19.138;2022-12-13T04:45:55;97901.88;;;21.91;41.15
74975;BME280;64061;50.836;19.138;2022-12-13T04:49:00;97890.56;;;21.92;40.90
74975;BME280;64061;50.836;19.138;2022-12-13T04:52:03;97898.00;;;21.92;41.00
74975;BME280;64061;50.836;19.138;2022-12-13T04:55:09;97891.88;;;21.95;41.11
74975;BME280;64061;50.836;19.138;2022-12-13T04:58:13;97898.19;;;21.95;41.41
74975;BME280;64061;50.836;19.138;2022-12-13T05:01:24;97907.72;;;21.98;41.38
74975;BME280;64061;50.836;19.138;2022-12-13T05:04:27;97905.69;;;22.03;41.40
74975;BME280;64061;50.836;19.138;2022-12-13T05:07:34;97902.63;;;22.05;41.62
74975;BME280;64061;50.836;19.138;2022-12-13T05:10:44;97900.38;;;22.07;41.16
74975;BME280;64061;50.836;19.138;2022-12-13T05:13:49;97901.81;;;22.04;41.37
74975;BME280;64061;50.836;19.138;2022-12-13T05:16:52;97909.22;;;22.04;41.04
74975;BME280;64061;50.836;19.138;2022-12-13T05:19:56;97904.06;;;22.02;41.05
74975;BME280;64061;50.836;19.138;2022-12-13T05:22:59;97908.41;;;22.03;41.65
74975;BME280;64061;50.836;19.138;2022-12-13T05:26:05;97911.97;;;22.04;41.08
74975;BME280;64061;50.836;19.138;2022-12-13T05:29:08;97908.22;;;22.00;40.70
74975;BME280;64061;50.836;19.138;2022-12-13T05:32:12;97905.31;;;21.96;40.46
74975;BME280;64061;50.836;19.138;2022-12-13T16:48:11;98126.72;;;23.21;36.09
74975;BME280;64061;50.836;19.138;2022-12-13T16:51:15;98129.53;;;23.47;35.76
74975;BME280;64061;50.836;19.138;2022-12-13T16:54:23;98132.56;;;23.76;35.10
74975;BME280;64061;50.836;19.138;2022-12-13T16:57:27;98138.06;;;23.85;35.39
74975;BME280;64061;50.836;19.138;2022-12-13T17:00:30;98144.06;;;23.87;35.50
74975;BME280;64061;50.836;19.138;2022-12-13T17:03:36;98152.00;;;23.89;35.65
74975;BME280;64061;50.836;19.138;2022-12-13T17:06:39;98144.69;;;23.84;35.80
74975;BME280;64061;50.836;19.138;2022-12-13T17:09:43;98147.44;;;23.84;35.98
74975;BME280;64061;50.836;19.138;2022-12-13T17:12:47;98150.06;;;23.80;36.41
74975;BME280;64061;50.836;19.138;2022-12-13T17:15:50;98151.47;;;23.61;35.91
74975;BME280;64061;50.836;19.138;2022-12-13T17:19:02;98148.66;;;23.43;36.40
74975;BME280;64061;50.836;19.138;2022-12-13T17:22:06;98154.44;;;23.33;36.35
74975;BME280;64061;50.836;19.138;2022-12-13T17:25:10;98161.06;;;23.24;36.44
74975;BME280;64061;50.836;19.138;2022-12-13T17:28:15;98154.34;;;23.07;36.52
74975;BME280;64061;50.836;19.138;2022-12-13T17:31:19;98156.06;;;22.95;36.88
74975;BME280;64061;50.836;19.138;2022-12-13T17:34:25;98159.09;;;22.85;36.81
74975;BME280;64061;50.836;19.138;2022-12-13T17:37:29;98153.97;;;22.69;36.81
74975;BME280;64061;50.836;19.138;2022-12-13T17:40:34;98156.50;;;22.57;37.00
74975;BME280;64061;50.836;19.138;2022-12-13T17:43:38;98153.19;;;22.47;37.09
74975;BME280;64061;50.836;19.138;2022-12-13T17:46:43;98156.00;;;22.33;36.97
74975;BME280;64061;50.836;19.138;2022-12-13T17:49:57;98142.84;;;22.21;37.49
74975;BME280;64061;50.836;19.138;2022-12-13T17:53:01;98157.13;;;22.10;37.60
74975;BME280;64061;50.836;19.138;2022-12-13T17:56:06;98163.84;;;22.03;37.87
74975;BME280;64061;50.836;19.138;2022-12-13T17:59:11;98157.25;;;21.91;37.74
74975;BME280;64061;50.836;19.138;2022-12-13T18:02:16;98156.88;;;21.84;37.92
74975;BME280;64061;50.836;19.138;2022-12-13T18:05:25;98159.44;;;21.80;38.19
74975;BME280;64061;50.836;19.138;2022-12-13T18:08:28;98168.78;;;21.79;38.13
74975;BME280;64061;50.836;19.138;2022-12-13T18:11:36;98165.53;;;21.77;38.34
74975;BME280;64061;50.836;19.138;2022-12-13T18:14:40;98169.38;;;21.76;38.54
74975;BME280;64061;50.836;19.138;2022-12-13T18:17:45;98172.84;;;21.82;38.94
74975;BME280;64061;50.836;19.138;2022-12-13T18:24:18;98170.16;;;21.90;38.88
74975;BME280;64061;50.836;19.138;2022-12-13T18:27:22;98175.06;;;21.93;39.28
74975;BME280;64061;50.836;19.138;2022-12-13T18:30:26;98181.06;;;21.95;38.78
74975;BME280;64061;50.836;19.138;2022-12-13T18:33:32;98176.47;;;21.91;38.82
74975;BME280;64061;50.836;19.138;2022-12-13T18:36:37;98180.66;;;21.88;38.90
74975;BME280;64061;50.836;19.138;2022-12-13T18:39:41;98175.28;;;21.83;38.38
74975;BME280;64061;50.836;19.138;2022-12-13T18:42:56;98176.88;;;21.84;38.86
74975;BME280;64061;50.836;19.138;2022-12-13T18:46:00;98171.91;;;21.86;38.64
74975;BME280;64061;50.836;19.138;2022-12-13T18:49:06;98181.25;;;21.85;39.06
74975;BME280;64061;50.836;19.138;2022-12-13T18:52:11;98183.81;;;21.95;39.99
74975;BME280;64061;50.836;19.138;2022-12-13T18:55:15;98186.03;;;21.93;40.42
74975;BME280;64061;50.836;19.138;2022-12-13T18:58:19;98186.03;;;21.93;41.11
74975;BME280;64061;50.836;19.138;2022-12-13T19:01:25;98196.50;;;21.91;41.40
74975;BME280;64061;50.836;19.138;2022-12-13T19:04:29;98196.50;;;21.91;41.74
74975;BME280;64061;50.836;19.138;2022-12-13T19:07:34;98187.56;;;21.86;41.27
74975;BME280;64061;50.836;19.138;2022-12-13T19:10:38;98186.88;;;21.80;41.45
74975;BME280;64061;50.836;19.138;2022-12-13T19:13:42;98188.50;;;21.81;41.64
74975;BME280;64061;50.836;19.138;2022-12-13T19:16:46;98188.59;;;21.76;41.39
74975;BME280;64061;50.836;19.138;2022-12-13T19:19:50;98182.41;;;21.70;41.38
74975;BME280;64061;50.836;19.138;2022-12-13T19:22:55;98185.47;;;21.69;41.87
74975;BME280;64061;50.836;19.138;2022-12-13T19:26:03;98187.09;;;21.70;41.66
74975;BME280;64061;50.836;19.138;2022-12-13T19:29:08;98186.69;;;21.63;41.51
74975;BME280;64061;50.836;19.138;2022-12-13T19:32:12;98191.97;;;21.59;41.73
74975;BME280;64061;50.836;19.138;2022-12-13T19:35:16;98191.38;;;21.62;41.77
74975;BME280;64061;50.836;19.138;2022-12-13T19:38:22;98198.28;;;21.60;41.78
74975;BME280;64061;50.836;19.138;2022-12-13T19:41:25;98191.81;;;21.56;41.94
74975;BME280;64061;50.836;19.138;2022-12-13T19:44:29;98194.63;;;21.51;41.76
74975;BME280;64061;50.836;19.138;2022-12-13T19:47:33;98195.25;;;21.48;41.63
74975;BME280;64061;50.836;19.138;2022-12-13T19:50:37;98188.13;;;21.47;41.76
74975;BME280;64061;50.836;19.138;2022-12-13T19:53:43;98192.63;;;21.43;41.93
74975;BME280;64061;50.836;19.138;2022-12-13T19:56:46;98191.00;;;21.42;42.10
74975;BME280;64061;50.836;19.138;2022-12-13T19:59:50;98195.53;;;21.46;42.15
74975;BME280;64061;50.836;19.138;2022-12-13T20:02:54;98195.75;;;21.50;42.42
74975;BME280;64061;50.836;19.138;2022-12-13T20:05:58;98196.78;;;21.54;42.68
74975;BME280;64061;50.836;19.138;2022-12-13T20:09:05;98197.78;;;21.58;43.05
74975;BME280;64061;50.836;19.138;2022-12-13T20:12:08;98191.16;;;21.59;43.14
74975;BME280;64061;50.836;19.138;2022-12-13T20:15:12;98190.78;;;21.52;43.56
74975;BME280;64061;50.836;19.138;2022-12-13T20:18:16;98188.53;;;21.54;43.30
74975;BME280;64061;50.836;19.138;2022-12-13T20:21:20;98189.25;;;21.46;43.53
74975;BME280;64061;50.836;19.138;2022-12-13T20:24:25;98194.25;;;21.44;43.74
74975;BME280;64061;50.836;19.138;2022-12-13T20:27:28;98193.22;;;21.40;43.86
74975;BME280;64061;50.836;19.138;2022-12-13T20:30:33;98191.09;;;21.37;43.85
74975;BME280;64061;50.836;19.138;2022-12-13T20:33:37;98191.59;;;21.39;43.68
74975;BME280;64061;50.836;19.138;2022-12-13T20:36:41;98186.72;;;21.36;43.47
74975;BME280;64061;50.836;19.138;2022-12-13T20:39:46;98201.25;;;21.36;43.08
74975;BME280;64061;50.836;19.138;2022-12-13T20:42:50;98195.66;;;21.27;42.68
74975;BME280;64061;50.836;19.138;2022-12-13T20:46:00;98202.56;;;21.25;42.42
74975;BME280;64061;50.836;19.138;2022-12-13T20:49:06;98196.06;;;21.21;42.35
74975;BME280;64061;50.836;19.138;2022-12-13T20:52:11;98198.56;;;21.17;41.74
74975;BME280;64061;50.836;19.138;2022-12-13T20:55:16;98203.78;;;21.19;41.70
74975;BME280;64061;50.836;19.138;2022-12-13T20:58:22;98204.38;;;21.16;41.48
74975;BME280;64061;50.836;19.138;2022-12-13T21:01:27;98199.69;;;21.16;41.34
74975;BME280;64061;50.836;19.138;2022-12-13T21:04:32;98200.31;;;21.13;41.34
74975;BME280;64061;50.836;19.138;2022-12-13T21:07:36;98201.41;;;21.12;41.18
74975;BME280;64061;50.836;19.138;2022-12-13T21:10:58;98200.09;;;21.10;40.84
74975;BME280;64061;50.836;19.138;2022-12-13T21:14:23;98200.69;;;21.07;40.91
74975;BME280;64061;50.836;19.138;2022-12-13T21:17:29;98205.34;;;21.06;40.57
74975;BME280;64061;50.836;19.138;2022-12-13T21:20:32;98205.34;;;21.06;40.40
74975;BME280;64061;50.836;19.138;2022-12-13T21:23:36;98209.72;;;21.07;40.57
74975;BME280;64061;50.836;19.138;2022-12-13T21:26:41;98209.44;;;21.09;40.05
74975;BME280;64061;50.836;19.138;2022-12-13T21:29:46;98213.78;;;21.10;40.27
74975;BME280;64061;50.836;19.138;2022-12-13T21:32:49;98221.72;;;21.11;39.95
74975;BME280;64061;50.836;19.138;2022-12-13T21:35:54;98208.59;;;21.08;40.08
74975;BME280;64061;50.836;19.138;2022-12-13T21:38:59;98206.69;;;21.09;40.01
74975;BME280;64061;50.836;19.138;2022-12-13T21:42:05;98203.72;;;21.05;39.96
74975;BME280;64061;50.836;19.138;2022-12-13T21:45:10;98213.69;;;21.01;39.42
74975;BME280;64061;50.836;19.138;2022-12-13T21:48:13;98218.97;;;20.97;39.86
74975;BME280;64061;50.836;19.138;2022-12-13T21:51:19;98218.97;;;20.97;39.83
74975;BME280;64061;50.836;19.138;2022-12-13T21:54:24;98211.84;;;20.96;40.04
74975;BME280;64061;50.836;19.138;2022-12-13T21:57:28;98208.41;;;21.05;40.04
74975;BME280;64061;50.836;19.138;2022-12-13T22:00:50;98219.38;;;21.18;40.15
74975;BME280;64061;50.836;19.138;2022-12-13T22:03:53;98210.72;;;21.30;40.02
74975;BME280;64061;50.836;19.138;2022-12-13T22:06:57;98200.44;;;21.36;40.04
74975;BME280;64061;50.836;19.138;2022-12-13T22:10:01;98202.56;;;21.39;39.96
74975;BME280;64061;50.836;19.138;2022-12-13T22:13:07;98190.34;;;21.45;39.83
74975;BME280;64061;50.836;19.138;2022-12-13T22:16:10;98185.69;;;21.45;39.91
74975;BME280;64061;50.836;19.138;2022-12-13T22:19:15;98190.34;;;21.45;40.43
74975;BME280;64061;50.836;19.138;2022-12-13T22:22:19;98190.56;;;21.48;39.90
74975;BME280;64061;50.836;19.138;2022-12-13T22:25:25;98195.84;;;21.45;40.59
74975;BME280;64061;50.836;19.138;2022-12-13T22:28:29;98188.75;;;21.44;40.89
74975;BME280;64061;50.836;19.138;2022-12-13T22:31:34;98188.75;;;21.44;40.73
74975;BME280;64061;50.836;19.138;2022-12-13T22:34:37;98188.56;;;21.40;40.85
74975;BME280;64061;50.836;19.138;2022-12-13T22:37:40;98190.19;;;21.41;40.88
74975;BME280;64061;50.836;19.138;2022-12-13T22:40:45;98183.88;;;21.41;40.89
74975;BME280;64061;50.836;19.138;2022-12-13T22:43:50;98177.88;;;21.39;41.17
74975;BME280;64061;50.836;19.138;2022-12-13T22:46:53;98179.91;;;21.33;40.89
74975;BME280;64061;50.836;19.138;2022-12-13T22:49:57;98179.22;;;21.27;41.06
74975;BME280;64061;50.836;19.138;2022-12-13T22:53:00;98185.59;;;21.23;41.11
74975;BME280;64061;50.836;19.138;2022-12-13T22:56:06;98188.41;;;21.18;40.85
74975;BME280;64061;50.836;19.138;2022-12-13T22:59:12;98186.06;;;21.11;40.75
74975;BME280;64061;50.836;19.138;2022-12-13T23:02:15;98188.09;;;21.06;40.81
74975;BME280;64061;50.836;19.138;2022-12-13T23:05:19;98184.34;;;21.02;40.99
74975;BME280;64061;50.836;19.138;2022-12-13T23:08:23;98183.63;;;20.96;40.87
74975;BME280;64061;50.836;19.138;2022-12-13T23:11:27;98177.63;;;20.94;40.92
74975;BME280;64061;50.836;19.138;2022-12-13T23:14:51;98170.63;;;20.88;40.64
74975;BME280;64061;50.836;19.138;2022-12-13T23:17:54;98175.88;;;20.84;40.61
74975;BME280;64061;50.836;19.138;2022-12-13T23:20:58;98183.06;;;20.80;40.74
74975;BME280;64061;50.836;19.138;2022-12-13T23:24:02;98174.03;;;20.80;40.64
74975;BME280;64061;50.836;19.138;2022-12-13T23:27:06;98177.88;;;20.79;40.69
74975;BME280;64061;50.836;19.138;2022-12-13T23:30:11;98170.19;;;20.81;40.64
74975;BME280;64061;50.836;19.138;2022-12-13T23:33:15;98171.91;;;20.77;40.43
74975;BME280;64061;50.836;19.138;2022-12-13T23:36:20;98161.44;;;20.79;40.40
74975;BME280;64061;50.836;19.138;2022-12-13T23:39:26;98158.69;;;20.79;40.63
74975;BME280;64061;50.836;19.138;2022-12-13T23:42:29;98147.44;;;20.80;40.24
74975;BME280;64061;50.836;19.138;2022-12-13T23:45:34;98146.84;;;20.83;40.26
74975;BME280;64061;50.836;19.138;2022-12-13T23:48:38;98150.91;;;20.86;39.71
74975;BME280;64061;50.836;19.138;2022-12-13T23:51:42;98143.19;;;20.88;40.10
74975;BME280;64061;50.836;19.138;2022-12-13T23:54:46;98151.31;;;20.93;39.73
74975;BME280;64061;50.836;19.138;2022-12-13T23:57:49;98139.13;;;20.99;39.71
